• Join FlightAware (Why Join?)
  • Login
  • US Flag 
12:27PM EDT


 

Airport Tracker/Info


-or-


 

Live Flight TrackerFlight Track Log ✈ N695AB ✈ 17-Jul-2013 ✈ KMKC - KPSO

Flight Track Log - Related Links

Times and Time Zones

All times are in EDT time to prevent confusion due to time zone crossing. See the N695AB flight status page for this flight to view local times or setup timezone preferences in your user account.

Time Position Orientation Groundspeed Altitude Reporting Facility
EDT Latitude Longitude Course Direction KTS MPH feet Rate Location/Type
11:22AM 39.1000 -94.6167 270° West 132 152 1,700  Level Kansas City TRACON
11:23AM 39.1000 -94.6833 270° West 145 167 4,300 1,620 Climbing Kansas City TRACON
11:24AM 39.0908 -94.6997 234° Southwest 142 163 4,900 1,500 Climbing Kansas City Center
11:25AM 39.0772 -94.7572 253° West 150 173 6,700 1,020 Climbing Kansas City Center
11:26AM 39.0331 -94.7889 209° Southwest 188 216 7,100 120 Climbing Kansas City Center
11:27AM 38.9881 -94.8572 230° Southwest 256 295 7,000  Descending Kansas City Center
11:28AM 38.9853 -94.9464 268° West 260 299 7,200 480 Climbing Kansas City Center
11:29AM 39.0036 -95.0425 284° West 250 288 8,100 420 Climbing Kansas City Center
11:30AM 39.0242 -95.1300 287° West 263 303 8,100 660 Level Kansas City Center
11:31AM 39.0525 -95.2300 290° West 257 296 9,500 1,860 Climbing Kansas City Center
11:32AM 39.0717 -95.2892 293° West 185 213 12,000 1,860 Climbing Kansas City Center
11:33AM 39.0739 -95.3511 273° West 180 207 13,400 1,560 Climbing Kansas City Center
11:34AM 39.0706 -95.4250 267° West 180 207 15,300 1,500 Climbing Kansas City Center
11:35AM 39.0675 -95.4847 266° West 180 207 16,500 1,260 Climbing Kansas City Center
11:36AM 39.0592 -95.5603 262° West 188 216 18,000 1,080 Climbing Kansas City Center
11:37AM 39.0561 -95.6236 266° West 186 214 18,800 960 Climbing Kansas City Center
11:38AM 39.0511 -95.7011 265° West 192 221 20,000 1,080 Climbing Kansas City Center
11:39AM 39.0447 -95.7683 263° West 197 227 21,100 960 Climbing Kansas City Center
11:40AM 39.0356 -95.8361 260° West 202 232 22,000 960 Climbing Kansas City Center
11:41AM 39.0261 -95.9156 261° West 202 232 23,100 900 Climbing Kansas City Center
11:42AM 39.0156 -95.9828 259° West 201 231 23,900 780 Climbing Kansas City Center
11:43AM 39.0025 -96.0625 258° West 204 235 24,800 720 Climbing Kansas City Center
11:44AM 38.9900 -96.1306 257° West 204 235 25,500 720 Climbing Kansas City Center
11:46AM 38.9792 -96.2114 260° West 204 235 26,300 660 Climbing Kansas City Center
11:47AM 38.9661 -96.2803 256° West 208 239 26,900 600 Climbing Kansas City Center
11:48AM 38.9506 -96.3642 257° West 214 246 27,600 480 Climbing Kansas City Center
11:49AM 38.9397 -96.4367 259° West 215 247 28,000 180 Climbing Kansas City Center
11:50AM 38.9286 -96.5300 261° West 236 272 28,000  Level Kansas City Center
11:51AM 38.9114 -96.6167 256° West 249 287 28,100  Climbing Kansas City Center
11:52AM 38.8903 -96.7067 253° West 259 298 28,100 -120 Level Kansas City Center
11:53AM 38.8739 -96.7972 257° West 262 302 27,900 -60 Descending Kansas City Center
11:54AM 38.8594 -96.8936 259° West 272 313 28,000  Climbing Kansas City Center
11:55AM 38.8469 -96.9886 260° West 272 313 28,000  Level Kansas City Center
11:56AM 38.8350 -97.1033 262° West 271 312 28,000  Level Kansas City Center
11:57AM 38.8211 -97.1992 259° West 273 314 28,000  Level Kansas City Center
11:58AM 38.8108 -97.2964 262° West 276 318 28,000  Level Kansas City Center
11:59AM 38.7994 -97.3925 261° West 274 315 28,000  Level Kansas City Center
12:00PM 38.7944 -97.4894 266° West 273 314 28,100 240 Climbing Kansas City Center
12:01PM 38.7925 -97.5975 269° West 264 304 28,500 240 Climbing Kansas City Center
12:02PM 38.7836 -97.6853 263° West 260 299 28,600  Climbing Kansas City Center
12:03PM 38.7733 -97.7889 263° West 262 302 28,500  Descending Kansas City Center
12:04PM 38.7614 -97.8775 260° West 265 305 28,600  Climbing Kansas City Center
12:05PM 38.7456 -97.9711 258° West 269 310 28,600  Level Kansas City Center
12:06PM 38.7319 -98.0658 260° West 270 311 28,600 -60 Level Kansas City Center
12:07PM 38.7222 -98.1803 264° West 271 312 28,500  Descending Kansas City Center
12:08PM 38.7161 -98.2769 265° West 273 314 28,600  Climbing Kansas City Center
12:09PM 38.7078 -98.3725 264° West 271 312 28,600  Level Kansas City Center
12:10PM 38.6928 -98.4658 258° West 271 312 28,700  Climbing Kansas City Center
12:11PM 38.6742 -98.5617 256° West 270 311 28,700  Level Kansas City Center
12:12PM 38.6578 -98.6533 257° West 271 312 28,700  Level Kansas City Center
12:13PM 38.6417 -98.7683 260° West 274 315 28,700 -60 Level Kansas City Center
12:14PM 38.6347 -98.8644 265° West 274 315 28,600 -60 Descending Kansas City Center
12:15PM 38.6217 -98.9619 260° West 277 319 28,600 -60 Level Kansas City Center
12:16PM 38.6094 -99.0569 261° West 274 315 28,500 -60 Descending Kansas City Center
12:18PM 38.6014 -99.1544 264° West 275 316 28,500  Level Kansas City Center
12:19PM 38.5922 -99.2503 263° West 273 314 28,500  Level Kansas City Center
12:20PM 38.5792 -99.3650 262° West 273 314 28,500  Level Kansas City Center
12:21PM 38.5686 -99.4600 262° West 272 313 28,500  Level Kansas City Center
12:22PM 38.5600 -99.5572 264° West 275 316 28,500  Level Kansas City Center
12:23PM 38.5481 -99.6639 262° West 274 315 28,600  Climbing Kansas City Center
12:24PM 38.5342 -99.7536 259° West 272 313 28,600  Level Kansas City Center
12:25PM 38.5139 -99.8597 256° West 275 316 28,700  Climbing Kansas City Center
12:26PM 38.4956 -99.9481 255° West 272 313 28,600 -120 Descending Kansas City Center
12:27PM 38.4800 -100.0569 260° West 278 320 28,500 -60 Descending Kansas City Center
12:28PM 38.4733 -100.1519 265° West 281 323 28,500  Level Kansas City Center
12:29PM 38.4639 -100.2608 264° West 278 320 28,500  Level Kansas City Center
12:30PM 38.4533 -100.3531 262° West 276 318 28,500  Level Kansas City Center
12:31PM 38.4358 -100.4606 258° West 277 319 28,500  Level Kansas City Center
12:32PM 38.4178 -100.5517 256° West 277 319 28,500  Level Kansas City Center
12:33PM 38.3897 -100.6553 251° West 277 319 28,500  Level Kansas City Center
12:34PM 38.3672 -100.7442 252° West 277 319 28,500  Level Kansas City Center
12:35PM 38.3531 -100.8361 259° West 277 319 28,600  Climbing Kansas City Center
12:36PM 38.3431 -100.9433 263° West 275 316 28,600  Level Kansas City Center
12:37PM 38.3317 -101.0375 261° West 279 321 28,600 -120 Level Kansas City Center
12:38PM 38.3144 -101.1425 258° West 276 318 28,400 -120 Descending Kansas City Center
12:39PM 38.3006 -101.2344 259° West 276 318 28,400  Level Kansas City Center
12:40PM 38.2872 -101.3433 261° West 279 321 28,400  Level Kansas City Center
12:41PM 38.2717 -101.4364 258° West 280 322 28,400  Level Kansas City Center
12:42PM 38.2519 -101.5431 257° West 278 320 28,500 120 Climbing Kansas City Center
12:43PM 38.2369 -101.6353 258° West 278 320 28,700 -240 Climbing Kansas City Center
12:44PM 38.2211 -101.7461 260° West 283 326 28,100 -360 Descending Kansas City Center
12:45PM 38.2019 -101.8442 256° West 293 337 28,000 -60 Descending Kansas City Center
12:46PM 38.1814 -101.9542 257° West 287 330 28,000  Level Kansas City Center
12:48PM 38.1664 -102.0447 258° West 282 325 28,000  Level Kansas City Center
12:49PM 38.1464 -102.1839 260° West 280 322 28,000  Level Denver Center
12:50PM 38.1328 -102.2750 259° West 277 319 28,000  Level Denver Center
12:51PM 38.1178 -102.3683 258° West 282 325 28,000  Level Denver Center
12:52PM 38.1025 -102.4775 260° West 279 321 28,000  Level Denver Center
12:53PM 38.0908 -102.5714 261° West 281 323 28,100  Climbing Denver Center
12:54PM 38.0792 -102.6806 262° West 280 322 28,000  Descending Denver Center
12:55PM 38.0672 -102.7742 261° West 281 323 28,100  Climbing Denver Center
12:56PM 38.0531 -102.8817 261° West 277 319 28,000 -60 Descending Denver Center
12:57PM 38.0336 -102.9728 255° West 279 321 28,000  Level Denver Center
12:58PM 38.0072 -103.0808 253° West 280 322 28,000  Level Denver Center
12:59PM 37.9844 -103.1700 252° West 277 319 28,100 -60 Climbing Denver Center
01:00PM 37.9622 -103.2767 255° West 280 322 27,900 -60 Descending Denver Center
01:01PM 37.9447 -103.3692 257° West 282 325 28,000  Climbing Denver Center
01:02PM 37.9267 -103.4608 256° West 281 323 28,000  Level Denver Center
01:03PM 37.9058 -103.5694 256° West 285 328 28,000  Level Denver Center
01:04PM 37.8917 -103.6631 259° West 283 326 28,000  Level Denver Center
01:05PM 37.8778 -103.7744 261° West 288 331 28,000  Level Denver Center
01:06PM 37.8658 -103.8678 261° West 283 326 28,000  Level Denver Center
01:07PM 37.8467 -103.9792 258° West 291 335 28,100  Climbing Denver Center
01:08PM 37.8314 -104.0725 258° West 287 330 28,000 -60 Descending Denver Center
01:09PM 37.8111 -104.1828 257° West 289 333 28,000  Level Denver Center
01:11PM 37.7878 -104.2914 255° West 289 333 28,000  Level Denver Center
01:12PM 37.7667 -104.3831 254° West 287 330 28,100  Climbing Denver Center
01:13PM 37.7481 -104.4931 258° West 288 331 28,100 -60 Level Denver Center
01:14PM 37.7297 -104.5875 256° West 289 333 28,000 -120 Descending Denver Center
01:15PM 37.7100 -104.6797 255° West 286 329 27,900 -480 Descending Denver Center
01:16PM 37.6806 -104.7933 252° West 301 346 27,100 -540 Descending Denver Center
01:17PM 37.6525 -104.8922 250° West 310 357 26,900 -120 Descending Denver Center
01:18PM 37.6286 -105.0236 257° West 303 349 26,900 60 Level Denver Center
01:19PM 37.6117 -105.1336 259° West 289 333 27,100 60 Climbing Denver Center
01:20PM 37.5942 -105.2289 257° West 290 334 27,100  Level Denver Center
01:21PM 37.5719 -105.3397 256° West 292 336 27,100 -60 Level Denver Center
01:22PM 37.5556 -105.4347 258° West 291 335 27,000 -540 Descending Denver Center
01:23PM 37.5419 -105.5483 261° West 298 343 26,100 -960 Descending Denver Center
01:24PM 37.5278 -105.6575 261° West 325 374 25,100 -1,260 Descending Denver Center
01:25PM 37.5122 -105.7914 262° West 340 391 23,600 -1,080 Descending Denver Center
01:26PM 37.4958 -105.9036 260° West 341 392 22,900 -660 Descending Denver Center
01:27PM 37.4714 -106.0092 254° West 331 381 22,300 -420 Descending Denver Center
01:28PM 37.4511 -106.1297 258° West 315 362 22,100 -360 Descending Denver Center
01:29PM 37.4269 -106.2458 255° West 313 360 21,600 -360 Descending Denver Center
01:30PM 37.4086 -106.3464 257° West 310 357 21,400 -300 Descending Denver Center
01:31PM 37.3881 -106.4453 255° West 305 351 21,000 -720 Descending Denver Center
01:32PM 37.3583 -106.5611 252° West 310 357 20,000 -1,080 Descending Denver Center
01:33PM 37.3381 -106.6647 256° West 315 362 18,800 -1,200 Descending Denver Center
01:35PM 37.3192 -106.7911 259° West 321 369 17,500 -1,260 Descending Denver Center
01:37PM 37.2949 -106.9692 260° West  Level FlightAware Approximate
01:44PM 37.2833 -107.0500 260° West  Level FlightAware Approximate
01:45PM 37.2863 -107.0560 260° West  Level Estimated
01:46PM 37.2833 -107.0500 260° West  Level FlightAware Approximate
01:47PM 37.2863 -107.0560 260° West  Level Estimated
01:48PM 37.2833 -107.0500 260° West  Level FlightAware Approximate
01:49PM 37.2863 -107.0560 260° West  Level Estimated
01:50PM 37.2833 -107.0500 260° West  Level FlightAware Approximate
01:51PM 37.2863 -107.0560 260° West  Level Estimated
01:52PM 37.2833 -107.0500 260° West  Level FlightAware Approximate
01:53PM 37.2863 -107.0560 260° West  Level Estimated
01:54PM 37.2833 -107.0500 260° West  Level FlightAware Approximate
01:55PM 37.2863 -107.0560 260° West  Level Estimated